Time;durP1;ratioP1;P1;durP2;ratioP2;P2;SDS_P1;SDS_P2;PMS_P1;PMS_P2;Temp;Humidity;BMP_temperature;BMP_pressure;BME280_temperature;BME280_humidity;BME280_pressure;Samples;Min_cycle;Max_cycle;Signal;HPM_P1;HPM_P2
2022/02/24 00:01:13;;;;;;;;;;;;;;;;;;4999237;28;20396;-58
2022/02/24 00:03:38;;;;;;;;;;;;;;;;;;4998052;28;20008;-59
2022/02/24 00:06:03;;;;;;;;;;;;;;;;;;5018929;28;20064;-59
2022/02/24 00:08:28;;;;;;;;;;;;;;;;;;4999841;28;19913;-60
2022/02/24 00:10:53;;;;;;;;;;;;;;;;;;5000442;28;20000;-59
2022/02/24 00:13:18;;;;;;;;;;;;;;;;;;5002284;28;20288;-59
2022/02/24 00:15:44;;;;;;;;;;;;;;;;;;5000612;28;19976;-59
2022/02/24 00:18:09;;;;;;;;;;;;;;;;;;5001612;28;19940;-59
2022/02/24 00:20:34;;;;;;;;;;;;;;;;;;4998654;28;19925;-59
2022/02/24 00:22:59;;;;;;;;;;;;;;;;;;5001623;28;19971;-60
2022/02/24 00:25:24;;;;;;;;;;;;;;;;;;5015514;28;19914;-60
2022/02/24 00:27:49;;;;;;;;;;;;;;;;;;5003580;28;20345;-59
2022/02/24 00:30:15;;;;;;;;;;;;;;;;;;4999574;28;19910;-59
2022/02/24 00:32:40;;;;;;;;;;;;;;;;;;5002622;28;19918;-59
2022/02/24 00:35:05;;;;;;;;;;;;;;;;;;4997828;28;19976;-59
2022/02/24 00:37:31;;;;;;;;;;;;;;;;;;4999363;28;19918;-59
2022/02/24 00:39:56;;;;;;;;;;;;;;;;;;4998387;28;19913;-60
2022/02/24 00:42:21;;;;;;;;;;;;;;;;;;4999587;28;19910;-59
2022/02/24 00:44:46;;;;;;;;;;;;;;;;;;4997361;28;19957;-59
2022/02/24 00:47:12;;;;;;;;;;;;;;;;;;4999756;28;19912;-58
2022/02/24 00:49:37;;;;;;;;;;;;;;;;;;5015420;28;20036;-58
2022/02/24 00:52:02;;;;;;;;;;;;;;;;;;4999946;28;19917;-58
2022/02/24 00:54:27;;;;;;;;;;;;;;;;;;5000969;28;19918;-59
2022/02/24 00:56:52;;;;;;;;;;;;;;;;;;4997808;28;20332;-59
2022/02/24 00:59:17;;;;;;;;;;;;;;;;;;5015743;28;19917;-59
2022/02/24 01:01:43;;;;;;;;;;;;;;;;;;5000506;28;20457;-59
2022/02/24 01:04:08;;;;;;;;;;;;;;;;;;5001681;28;19914;-58
2022/02/24 01:06:33;;;;;;;;;;;;;;;;;;4997665;28;21289;-59
2022/02/24 01:08:59;;;;;;;;;;;;;;;;;;4997725;28;19920;-59
2022/02/24 01:11:24;;;;;;;;;;;;;;;;;;5013265;28;19913;-59
2022/02/24 01:13:49;;;;;;;;;;;;;;;;;;4999107;28;19914;-59
2022/02/24 01:16:14;;;;;;;;;;;;;;;;;;4997873;28;19914;-61
2022/02/24 01:18:39;;;;;;;;;;;;;;;;;;5000075;28;20035;-59
2022/02/24 01:21:04;;;;;;;;;;;;;;;;;;4998248;28;19917;-59
2022/02/24 01:23:30;;;;;;;;;;;;;;;;;;4997297;28;20346;-58
2022/02/24 01:25:55;;;;;;;;;;;;;;;;;;5000064;28;19964;-58
2022/02/24 01:28:20;;;;;;;;;;;;;;;;;;4994765;28;19919;-58
2022/02/24 01:30:45;;;;;;;;;;;;;;;;;;4998410;28;19996;-58
2022/02/24 01:33:10;;;;;;;;;;;;;;;;;;4998152;28;19955;-59
2022/02/24 01:35:36;;;;;;;;;;;;;;;;;;5002645;28;20399;-59
2022/02/24 01:38:01;;;;;;;;;;;;;;;;;;4999436;28;20008;-59
2022/02/24 01:40:26;;;;;;;;;;;;;;;;;;5012869;28;19922;-59
2022/02/24 01:42:51;;;;;;;;;;;;;;;;;;5000332;28;19972;-59
2022/02/24 01:45:16;;;;;;;;;;;;;;;;;;4996846;28;19914;-59
2022/02/24 01:47:41;;;;;;;;;;;;;;;;;;5001437;28;20421;-59
2022/02/24 01:50:07;;;;;;;;;;;;;;;;;;4998811;28;19922;-59
2022/02/24 01:52:32;;;;;;;;;;;;;;;;;;4996604;28;20012;-59
2022/02/24 01:54:57;;;;;;;;;;;;;;;;;;5000682;28;20393;-59
2022/02/24 01:57:22;;;;;;;;;;;;;;;;;;4997987;28;19921;-58
2022/02/24 01:59:47;;;;;;;;;;;;;;;;;;4997415;28;19914;-59
2022/02/24 02:02:14;;;;;;;;;;;;;;;;;;4999957;28;20001;-59
2022/02/24 02:04:39;;;;;;;;;;;;;;;;;;4998831;28;19968;-58
2022/02/24 02:07:04;;;;;;;;;;;;;;;;;;4999493;28;20344;-57
2022/02/24 02:09:29;;;;;;;;;;;;;;;;;;4997531;28;20075;-59
2022/02/24 02:11:54;;;;;;;;;;;;;;;;;;5001366;28;19913;-60
2022/02/24 02:14:19;;;;;;;;;;;;;;;;;;4996820;28;19975;-59
2022/02/24 02:16:45;;;;;;;;;;;;;;;;;;4996123;28;19914;-60
2022/02/24 02:19:10;;;;;;;;;;;;;;;;;;4995776;28;20038;-59
2022/02/24 02:21:35;;;;;;;;;;;;;;;;;;4997085;28;20296;-57
2022/02/24 02:24:01;;;;;;;;;;;;;;;;;;4997573;28;19957;-59
2022/02/24 02:26:26;;;;;;;;;;;;;;;;;;4997383;28;20409;-59
2022/02/24 02:28:51;;;;;;;;;;;;;;;;;;4996079;28;19953;-59
2022/02/24 02:31:16;;;;;;;;;;;;;;;;;;4998009;28;19917;-59
2022/02/24 02:33:41;;;;;;;;;;;;;;;;;;4996872;28;19916;-58
2022/02/24 02:36:07;;;;;;;;;;;;;;;;;;4996586;28;19909;-58
2022/02/24 02:38:32;;;;;;;;;;;;;;;;;;5012187;28;19917;-58
2022/02/24 02:40:57;;;;;;;;;;;;;;;;;;4996587;28;19918;-58
2022/02/24 02:43:22;;;;;;;;;;;;;;;;;;4999091;28;19914;-58
2022/02/24 02:45:47;;;;;;;;;;;;;;;;;;4997618;28;19914;-58
2022/02/24 02:48:12;;;;;;;;;;;;;;;;;;5011693;28;19996;-58
2022/02/24 02:50:38;;;;;;;;;;;;;;;;;;4996478;28;19933;-59
2022/02/24 02:53:03;;;;;;;;;;;;;;;;;;4997914;28;19910;-59
2022/02/24 02:55:28;;;;;;;;;;;;;;;;;;4999321;28;19941;-59
2022/02/24 02:57:53;;;;;;;;;;;;;;;;;;4997865;28;19920;-59
2022/02/24 03:00:18;;;;;;;;;;;;;;;;;;4997434;28;19909;-58
2022/02/24 03:02:44;;;;;;;;;;;;;;;;;;4995023;28;20022;-58
2022/02/24 03:05:09;;;;;;;;;;;;;;;;;;4998308;28;19921;-58
2022/02/24 03:07:34;;;;;;;;;;;;;;;;;;5002902;28;20375;-59
2022/02/24 03:09:59;;;;;;;;;;;;;;;;;;4997284;28;20029;-59
2022/02/24 03:12:24;;;;;;;;;;;;;;;;;;4995448;28;20391;-59
2022/02/24 03:14:49;;;;;;;;;;;;;;;;;;5015233;28;19941;-59
2022/02/24 03:17:16;;;;;;;;;;;;;;;;;;4997403;28;20349;-57
2022/02/24 03:19:41;;;;;;;;;;;;;;;;;;4999999;28;19924;-58
2022/02/24 03:22:06;;;;;;;;;;;;;;;;;;4997540;28;20150;-58
2022/02/24 03:24:31;;;;;;;;;;;;;;;;;;4999999;28;19934;-58
2022/02/24 03:26:56;;;;;;;;;;;;;;;;;;4997835;28;19961;-58
2022/02/24 03:29:22;;;;;;;;;;;;;;;;;;4996168;28;20005;-59
2022/02/24 03:31:47;;;;;;;;;;;;;;;;;;4998894;28;19914;-58
2022/02/24 03:34:12;;;;;;;;;;;;;;;;;;5031115;28;19921;-59
2022/02/24 03:36:37;;;;;;;;;;;;;;;;;;5013981;28;19982;-59
2022/02/24 03:39:02;;;;;;;;;;;;;;;;;;4996887;28;20802;-59
2022/02/24 03:41:27;;;;;;;;;;;;;;;;;;4997590;28;20009;-60
2022/02/24 03:43:53;;;;;;;;;;;;;;;;;;5001371;28;19914;-59
2022/02/24 03:46:18;;;;;;;;;;;;;;;;;;4996516;28;20305;-59
2022/02/24 03:48:44;;;;;;;;;;;;;;;;;;5012529;28;19919;-59
2022/02/24 03:51:09;;;;;;;;;;;;;;;;;;4995128;28;19933;-59
2022/02/24 03:53:34;;;;;;;;;;;;;;;;;;4999038;28;20439;-59
2022/02/24 03:55:59;;;;;;;;;;;;;;;;;;4995270;28;19918;-59
2022/02/24 03:58:24;;;;;;;;;;;;;;;;;;4998119;28;19929;-59
2022/02/24 04:00:49;;;;;;;;;;;;;;;;;;4996565;28;19924;-59
2022/02/24 04:03:15;;;;;;;;;;;;;;;;;;4995334;28;20324;-59
2022/02/24 04:05:40;;;;;;;;;;;;;;;;;;4995245;28;19917;-59
2022/02/24 04:08:05;;;;;;;;;;;;;;;;;;4994723;28;19925;-58
2022/02/24 04:10:31;;;;;;;;;;;;;;;;;;4996803;28;19949;-59
2022/02/24 04:12:56;;;;;;;;;;;;;;;;;;4997838;28;19910;-58
2022/02/24 04:15:21;;;;;;;;;;;;;;;;;;5002957;28;20376;-58
2022/02/24 04:17:46;;;;;;;;;;;;;;;;;;4999129;28;19924;-59
2022/02/24 04:20:11;;;;;;;;;;;;;;;;;;5012218;28;19925;-59
2022/02/24 04:22:36;;;;;;;;;;;;;;;;;;4997066;28;19914;-59
2022/02/24 04:25:02;;;;;;;;;;;;;;;;;;4999865;28;20293;-59
2022/02/24 04:27:27;;;;;;;;;;;;;;;;;;5011745;28;20270;-59
2022/02/24 04:29:52;;;;;;;;;;;;;;;;;;4999738;28;20437;-59
2022/02/24 04:32:17;;;;;;;;;;;;;;;;;;4995873;28;19918;-61
2022/02/24 04:34:42;;;;;;;;;;;;;;;;;;4997838;28;19952;-57
2022/02/24 04:37:08;;;;;;;;;;;;;;;;;;4997599;28;19960;-58
2022/02/24 04:39:33;;;;;;;;;;;;;;;;;;4999590;28;20381;-58
2022/02/24 04:41:58;;;;;;;;;;;;;;;;;;5002014;28;19976;-58
2022/02/24 04:44:23;;;;;;;;;;;;;;;;;;5000463;28;20286;-58
2022/02/24 04:46:49;;;;;;;;;;;;;;;;;;5000380;28;20013;-58
2022/02/24 04:49:14;;;;;;;;;;;;;;;;;;4999974;28;19918;-58
2022/02/24 04:51:39;;;;;;;;;;;;;;;;;;4998834;28;20059;-59
2022/02/24 04:54:04;;;;;;;;;;;;;;;;;;4996825;28;19918;-59
2022/02/24 04:56:29;;;;;;;;;;;;;;;;;;5003003;28;20107;-59
2022/02/24 04:58:54;;;;;;;;;;;;;;;;;;5000715;28;20297;-58
2022/02/24 05:01:20;;;;;;;;;;;;;;;;;;4999614;28;19919;-58
2022/02/24 05:03:45;;;;;;;;;;;;;;;;;;5000089;28;19917;-59
2022/02/24 05:06:10;;;;;;;;;;;;;;;;;;5001368;28;19921;-59
2022/02/24 05:08:35;;;;;;;;;;;;;;;;;;5000628;28;20318;-58
2022/02/24 05:11:00;;;;;;;;;;;;;;;;;;4999537;28;19921;-59
2022/02/24 05:13:25;;;;;;;;;;;;;;;;;;5001257;28;19988;-59
2022/02/24 05:15:51;;;;;;;;;;;;;;;;;;4999402;28;20020;-59
2022/02/24 05:18:16;;;;;;;;;;;;;;;;;;5003285;28;19922;-59
2022/02/24 05:20:41;;;;;;;;;;;;;;;;;;4996425;28;19925;-59
2022/02/24 05:23:06;;;;;;;;;;;;;;;;;;4999520;28;19921;-59
2022/02/24 05:25:35;;;;;;;;;;;;;;;;;;4999851;28;19914;-59
2022/02/24 05:28:00;;;;;;;;;;;;;;;;;;4998534;28;19991;-59
2022/02/24 05:30:25;;;;;;;;;;;;;;;;;;4999443;28;19917;-59
2022/02/24 05:32:50;;;;;;;;;;;;;;;;;;4997414;28;20345;-59
2022/02/24 05:35:16;;;;;;;;;;;;;;;;;;5000168;28;19910;-59
2022/02/24 05:37:41;;;;;;;;;;;;;;;;;;4998525;28;19936;-59
2022/02/24 05:40:06;;;;;;;;;;;;;;;;;;5002794;28;20004;-59
2022/02/24 05:42:31;;;;;;;;;;;;;;;;;;4999224;28;19917;-59
2022/02/24 05:44:57;;;;;;;;;;;;;;;;;;4998159;28;20387;-58
2022/02/24 05:47:22;;;;;;;;;;;;;;;;;;4998526;28;19949;-58
2022/02/24 05:49:47;;;;;;;;;;;;;;;;;;4998501;28;19929;-58
2022/02/24 05:52:12;;;;;;;;;;;;;;;;;;5000000;28;19916;-59
2022/02/24 05:54:37;;;;;;;;;;;;;;;;;;4998711;28;19921;-60
2022/02/24 05:57:02;;;;;;;;;;;;;;;;;;5001258;28;19914;-60
2022/02/24 05:59:28;;;;;;;;;;;;;;;;;;4999794;28;20326;-59
2022/02/24 06:01:53;;;;;;;;;;;;;;;;;;4997666;28;19925;-60
2022/02/24 06:04:18;;;;;;;;;;;;;;;;;;4998742;28;20361;-58
2022/02/24 06:06:43;;;;;;;;;;;;;;;;;;4997615;28;20435;-58
2022/02/24 06:09:08;;;;;;;;;;;;;;;;;;4997553;28;19920;-58
2022/02/24 06:11:34;;;;;;;;;;;;;;;;;;4999808;28;19909;-59
2022/02/24 06:13:59;;;;;;;;;;;;;;;;;;4997908;28;19914;-60
2022/02/24 06:16:24;;;;;;;;;;;;;;;;;;4996988;28;20380;-59
2022/02/24 06:18:49;;;;;;;;;;;;;;;;;;5014031;28;19917;-60
2022/02/24 06:21:16;;;;;;;;;;;;;;;;;;4998449;28;20274;-59
2022/02/24 06:23:42;;;;;;;;;;;;;;;;;;4997506;28;19914;-58
2022/02/24 06:26:07;;;;;;;;;;;;;;;;;;4999314;28;19910;-58
2022/02/24 06:28:32;;;;;;;;;;;;;;;;;;4997676;28;19921;-58
2022/02/24 06:30:57;;;;;;;;;;;;;;;;;;4999420;28;20393;-59
2022/02/24 06:33:22;;;;;;;;;;;;;;;;;;4998793;28;19917;-59
2022/02/24 06:35:47;;;;;;;;;;;;;;;;;;4998589;28;19957;-59
2022/02/24 06:38:13;;;;;;;;;;;;;;;;;;5000216;28;19914;-59
2022/02/24 06:40:38;;;;;;;;;;;;;;;;;;5000384;28;20315;-60
2022/02/24 06:43:03;;;;;;;;;;;;;;;;;;4999387;28;19993;-59
2022/02/24 06:45:28;;;;;;;;;;;;;;;;;;4996780;28;19996;-59
2022/02/24 06:47:53;;;;;;;;;;;;;;;;;;4996354;28;19920;-59
2022/02/24 06:50:18;;;;;;;;;;;;;;;;;;4996839;28;20576;-60
2022/02/24 06:52:44;;;;;;;;;;;;;;;;;;4997033;28;20320;-59
2022/02/24 06:55:09;;;;;;;;;;;;;;;;;;4996055;28;19968;-58
2022/02/24 06:57:34;;;;;;;;;;;;;;;;;;4996806;28;19930;-58
2022/02/24 06:59:59;;;;;;;;;;;;;;;;;;4996158;28;19964;-58
2022/02/24 07:02:24;;;;;;;;;;;;;;;;;;5013000;28;19917;-58
2022/02/24 07:04:49;;;;;;;;;;;;;;;;;;4998616;28;20409;-58
2022/02/24 07:07:15;;;;;;;;;;;;;;;;;;4999637;28;19932;-60
2022/02/24 07:09:40;;;;;;;;;;;;;;;;;;4995433;28;19921;-58
2022/02/24 07:12:05;;;;;;;;;;;;;;;;;;4998123;28;19918;-60
2022/02/24 07:14:30;;;;;;;;;;;;;;;;;;4995297;28;19913;-59
2022/02/24 07:16:55;;;;;;;;;;;;;;;;;;4994227;28;19949;-58
2022/02/24 07:19:20;;;;;;;;;;;;;;;;;;4997333;28;19925;-58
2022/02/24 07:21:46;;;;;;;;;;;;;;;;;;4998753;28;20013;-61
2022/02/24 07:24:11;;;;;;;;;;;;;;;;;;4995380;28;20348;-58
2022/02/24 07:26:36;;;;;;;;;;;;;;;;;;4998649;28;19917;-59
2022/02/24 07:29:01;;;;;;;;;;;;;;;;;;5000054;28;20337;-59
2022/02/24 07:31:26;;;;;;;;;;;;;;;;;;5000429;28;19913;-58
2022/02/24 07:33:51;;;;;;;;;;;;;;;;;;4993857;28;19949;-59
2022/02/24 07:36:17;;;;;;;;;;;;;;;;;;4994962;28;20432;-58
2022/02/24 07:38:42;;;;;;;;;;;;;;;;;;4996913;28;19918;-58
2022/02/24 07:41:07;;;;;;;;;;;;;;;;;;4998751;28;19913;-58
2022/02/24 07:43:32;;;;;;;;;;;;;;;;;;5001391;28;19948;-58
2022/02/24 07:45:57;;;;;;;;;;;;;;;;;;4995725;28;20557;-54
2022/02/24 07:48:23;;;;;;;;;;;;;;;;;;4996921;28;19913;-54
2022/02/24 07:50:48;;;;;;;;;;;;;;;;;;4998921;28;19940;-55
2022/02/24 07:53:13;;;;;;;;;;;;;;;;;;5000595;28;20379;-55
2022/02/24 07:55:38;;;;;;;;;;;;;;;;;;4997201;28;19917;-52
2022/02/24 07:58:03;;;;;;;;;;;;;;;;;;5000027;28;19996;-52
2022/02/24 08:00:29;;;;;;;;;;;;;;;;;;4998870;28;19914;-55
2022/02/24 08:02:55;;;;;;;;;;;;;;;;;;4999411;28;19925;-53
2022/02/24 08:05:20;;;;;;;;;;;;;;;;;;5001262;28;20439;-53
2022/02/24 08:07:45;;;;;;;;;;;;;;;;;;5000579;28;19976;-50
2022/02/24 08:10:10;;;;;;;;;;;;;;;;;;5002776;28;20004;-53
2022/02/24 08:12:39;;;;;;;;;;;;;;;;;;5001048;28;20333;-58
2022/02/24 08:15:04;;;;;;;;;;;;;;;;;;5001736;28;19920;-58
2022/02/24 08:17:29;;;;;;;;;;;;;;;;;;4999885;28;19933;-58
2022/02/24 08:19:54;;;;;;;;;;;;;;;;;;5001366;28;20409;-58
2022/02/24 08:22:19;;;;;;;;;;;;;;;;;;5000188;28;19944;-58
2022/02/24 08:24:45;;;;;;;;;;;;;;;;;;4996280;28;19917;-58
2022/02/24 08:27:10;;;;;;;;;;;;;;;;;;4997156;28;19921;-58
2022/02/24 08:29:35;;;;;;;;;;;;;;;;;;4997803;28;20047;-57
2022/02/24 08:32:00;;;;;;;;;;;;;;;;;;5001060;28;19914;-58
2022/02/24 08:34:25;;;;;;;;;;;;;;;;;;5001124;28;19909;-58
2022/02/24 08:36:51;;;;;;;;;;;;;;;;;;5001535;28;20297;-58
2022/02/24 08:39:17;;;;;;;;;;;;;;;;;;4999750;28;19957;-59
2022/02/24 08:41:43;;;;;;;;;;;;;;;;;;5000200;28;20002;-57
2022/02/24 08:44:08;;;;;;;;;;;;;;;;;;4998597;28;19920;-58
2022/02/24 08:46:33;;;;;;;;;;;;;;;;;;5000984;28;19913;-58
2022/02/24 08:48:58;;;;;;;;;;;;;;;;;;4996944;28;20028;-58
2022/02/24 08:51:24;;;;;;;;;;;;;;;;;;5000696;28;19921;-57
2022/02/24 08:53:49;;;;;;;;;;;;;;;;;;4998071;28;20388;-58
2022/02/24 08:56:15;;;;;;;;;;;;;;;;;;4995437;28;20346;-58
2022/02/24 08:58:40;;;;;;;;;;;;;;;;;;5015808;28;19917;-59
2022/02/24 09:01:05;;;;;;;;;;;;;;;;;;4997741;28;19929;-59
2022/02/24 09:03:30;;;;;;;;;;;;;;;;;;5001359;28;20000;-58
2022/02/24 09:05:55;;;;;;;;;;;;;;;;;;5000422;28;20377;-59
2022/02/24 09:08:20;;;;;;;;;;;;;;;;;;4997749;28;19961;-59
2022/02/24 09:10:46;;;;;;;;;;;;;;;;;;4999579;28;20328;-59
2022/02/24 09:13:11;;;;;;;;;;;;;;;;;;4996773;28;19953;-60
2022/02/24 09:15:36;;;;;;;;;;;;;;;;;;4998141;28;19997;-60
2022/02/24 09:18:01;;;;;;;;;;;;;;;;;;4999065;28;19951;-60
2022/02/24 09:20:27;;;;;;;;;;;;;;;;;;4996396;28;19914;-61
2022/02/24 09:22:52;;;;;;;;;;;;;;;;;;4999519;28;20385;-59
2022/02/24 09:25:17;;;;;;;;;;;;;;;;;;4999705;28;19913;-58
2022/02/24 09:27:42;;;;;;;;;;;;;;;;;;4998513;28;20533;-59
2022/02/24 09:30:08;;;;;;;;;;;;;;;;;;4997484;28;19910;-60
2022/02/24 09:32:34;;;;;;;;;;;;;;;;;;4999188;28;19936;-60
2022/02/24 09:34:59;;;;;;;;;;;;;;;;;;4998793;28;20544;-60
2022/02/24 09:37:25;;;;;;;;;;;;;;;;;;4999465;28;19917;-60
2022/02/24 09:39:50;;;;;;;;;;;;;;;;;;4997142;28;20050;-60
2022/02/24 09:42:15;;;;;;;;;;;;;;;;;;4999336;28;20403;-60
2022/02/24 09:44:40;;;;;;;;;;;;;;;;;;4996730;28;19921;-60
2022/02/24 09:47:05;;;;;;;;;;;;;;;;;;5000338;28;20007;-60
2022/02/24 09:49:31;;;;;;;;;;;;;;;;;;4997783;28;20385;-60
2022/02/24 09:51:56;;;;;;;;;;;;;;;;;;4999824;28;19913;-60
2022/02/24 09:54:21;;;;;;;;;;;;;;;;;;4998712;28;20320;-60
2022/02/24 09:56:46;;;;;;;;;;;;;;;;;;4998567;28;19910;-60
2022/02/24 09:59:13;;;;;;;;;;;;;;;;;;4998347;28;19920;-61
2022/02/24 10:01:39;;;;;;;;;;;;;;;;;;5000088;28;19913;-60
2022/02/24 10:04:04;;;;;;;;;;;;;;;;;;4997989;28;19920;-60
2022/02/24 10:06:29;;;;;;;;;;;;;;;;;;4995730;28;20000;-60
2022/02/24 10:08:54;;;;;;;;;;;;;;;;;;4997860;28;19918;-60
2022/02/24 10:11:19;;;;;;;;;;;;;;;;;;5002736;28;20476;-60
2022/02/24 10:13:44;;;;;;;;;;;;;;;;;;4997695;28;19968;-61
2022/02/24 10:16:10;;;;;;;;;;;;;;;;;;5000162;28;19932;-61
2022/02/24 10:18:35;;;;;;;;;;;;;;;;;;4999399;28;19917;-60
2022/02/24 10:21:00;;;;;;;;;;;;;;;;;;5000989;28;20369;-61
2022/02/24 10:23:25;;;;;;;;;;;;;;;;;;4996911;28;19921;-60
2022/02/24 10:25:51;;;;;;;;;;;;;;;;;;4997006;28;19932;-60
2022/02/24 10:28:16;;;;;;;;;;;;;;;;;;5001620;28;20004;-60
2022/02/24 10:30:41;;;;;;;;;;;;;;;;;;4997689;28;19914;-61
2022/02/24 10:33:06;;;;;;;;;;;;;;;;;;4995810;28;19929;-60
2022/02/24 10:35:32;;;;;;;;;;;;;;;;;;4996226;28;20348;-61
2022/02/24 10:37:57;;;;;;;;;;;;;;;;;;4999900;28;19917;-61
2022/02/24 10:40:22;;;;;;;;;;;;;;;;;;4997009;28;20497;-61
2022/02/24 10:42:47;;;;;;;;;;;;;;;;;;4996977;28;20381;-61
2022/02/24 10:45:16;;;;;;;;;;;;;;;;;;4994020;28;20009;-60
2022/02/24 10:47:42;;;;;;;;;;;;;;;;;;4996274;28;20381;-61
2022/02/24 10:50:07;;;;;;;;;;;;;;;;;;4996099;28;19921;-61
2022/02/24 10:52:32;;;;;;;;;;;;;;;;;;4997793;28;19918;-61
2022/02/24 10:54:57;;;;;;;;;;;;;;;;;;4996233;28;19929;-61
2022/02/24 10:57:25;;;;;;;;;;;;;;;;;;4996290;28;19979;-61
2022/02/24 10:59:50;;;;;;;;;;;;;;;;;;4999902;28;20384;-61
2022/02/24 11:02:15;;;;;;;;;;;;;;;;;;5014497;28;19983;-62
2022/02/24 11:04:40;;;;;;;;;;;;;;;;;;4996657;28;19913;-62
2022/02/24 11:07:07;;;;;;;;;;;;;;;;;;4998038;28;20001;-61
2022/02/24 11:09:34;;;;;;;;;;;;;;;;;;4998414;28;20358;-61
2022/02/24 11:11:59;;;;;;;;;;;;;;;;;;4997144;28;20043;-61
2022/02/24 11:14:25;;;;;;;;;;;;;;;;;;4994637;28;20008;-61
2022/02/24 11:16:50;;;;;;;;;;;;;;;;;;4997389;28;20350;-61
2022/02/24 11:19:15;;;;;;;;;;;;;;;;;;4998401;28;19924;-62
2022/02/24 11:21:40;;;;;;;;;;;;;;;;;;5001557;28;19948;-62
2022/02/24 11:24:05;;;;;;;;;;;;;;;;;;4999304;28;19996;-62
2022/02/24 11:26:32;;;;;;;;;;;;;;;;;;5010202;28;20492;-62
2022/02/24 11:28:57;;;;;;;;;;;;;;;;;;4999856;28;20021;-60
2022/02/24 11:31:22;;;;;;;;;;;;;;;;;;4995767;28;20000;-60
2022/02/24 11:33:47;;;;;;;;;;;;;;;;;;4996170;28;20283;-59
2022/02/24 11:36:16;;;;;;;;;;;;;;;;;;4996606;28;19910;-59
2022/02/24 11:38:41;;;;;;;;;;;;;;;;;;4997836;28;19989;-61
2022/02/24 11:41:07;;;;;;;;;;;;;;;;;;5011999;28;19981;-59
2022/02/24 11:43:32;;;;;;;;;;;;;;;;;;4996356;28;19914;-59
2022/02/24 11:45:57;;;;;;;;;;;;;;;;;;4998639;28;19968;-60
2022/02/24 11:48:22;;;;;;;;;;;;;;;;;;4995774;28;20452;-60
2022/02/24 11:50:48;;;;;;;;;;;;;;;;;;4998979;28;19925;-58
2022/02/24 11:53:13;;;;;;;;;;;;;;;;;;4996062;28;19918;-60
2022/02/24 11:55:38;;;;;;;;;;;;;;;;;;4994667;28;19913;-60
2022/02/24 11:58:03;;;;;;;;;;;;;;;;;;4997541;28;19924;-60
2022/02/24 12:00:28;;;;;;;;;;;;;;;;;;4997838;28;19914;-60
2022/02/24 12:02:54;;;;;;;;;;;;;;;;;;4997726;28;19917;-60
2022/02/24 12:05:19;;;;;;;;;;;;;;;;;;4997748;28;20434;-60
2022/02/24 12:07:44;;;;;;;;;;;;;;;;;;4996178;28;20345;-60
2022/02/24 12:10:10;;;;;;;;;;;;;;;;;;4994828;28;20328;-53
2022/02/24 12:12:35;;;;;;;;;;;;;;;;;;4995777;28;20460;-52
2022/02/24 12:15:01;;;;;;;;;;;;;;;;;;4998771;28;19936;-54
2022/02/24 12:17:26;;;;;;;;;;;;;;;;;;4998115;28;19918;-54
2022/02/24 12:19:53;;;;;;;;;;;;;;;;;;4998454;28;20426;-53
2022/02/24 12:22:19;;;;;;;;;;;;;;;;;;4999632;28;19909;-59
2022/02/24 12:24:44;;;;;;;;;;;;;;;;;;5011817;28;19966;-59
2022/02/24 12:27:09;;;;;;;;;;;;;;;;;;4996931;28;19910;-59
2022/02/24 12:29:39;;;;;;;;;;;;;;;;;;4994296;28;19918;-59
2022/02/24 12:32:05;;;;;;;;;;;;;;;;;;5011702;28;19910;-59
2022/02/24 12:34:30;;;;;;;;;;;;;;;;;;4997655;28;19921;-59
2022/02/24 12:36:55;;;;;;;;;;;;;;;;;;5016430;28;20444;-60
2022/02/24 12:39:21;;;;;;;;;;;;;;;;;;5001118;28;19917;-60
2022/02/24 12:41:46;;;;;;;;;;;;;;;;;;5000236;28;19921;-60
2022/02/24 12:44:11;;;;;;;;;;;;;;;;;;5001223;28;19909;-60
2022/02/24 12:46:36;;;;;;;;;;;;;;;;;;5000483;28;19909;-58
2022/02/24 12:49:01;;;;;;;;;;;;;;;;;;5000066;28;19920;-60
2022/02/24 12:51:26;;;;;;;;;;;;;;;;;;4998733;28;19957;-60
2022/02/24 12:53:52;;;;;;;;;;;;;;;;;;5010815;28;20290;-60
2022/02/24 12:56:19;;;;;;;;;;;;;;;;;;5000490;28;20000;-61
2022/02/24 12:58:45;;;;;;;;;;;;;;;;;;5000380;28;19960;-60
2022/02/24 13:01:10;;;;;;;;;;;;;;;;;;4997273;28;20443;-60
2022/02/24 13:03:35;;;;;;;;;;;;;;;;;;4998620;28;19913;-60
2022/02/24 13:06:01;;;;;;;;;;;;;;;;;;4998361;28;19997;-60
2022/02/24 13:11:10;;;;;;;;;;;;;;;;;;4997514;28;19957;-60
2022/02/24 13:13:35;;;;;;;;;;;;;;;;;;4998654;28;20487;-60
2022/02/24 13:16:00;;;;;;;;;;;;;;;;;;5002474;28;20000;-60
2022/02/24 13:18:25;;;;;;;;;;;;;;;;;;5000270;28;20364;-60
2022/02/24 13:20:50;;;;;;;;;;;;;;;;;;5011701;28;19925;-60
2022/02/24 13:23:16;;;;;;;;;;;;;;;;;;4999803;28;19917;-60
2022/02/24 13:25:41;;;;;;;;;;;;;;;;;;5001551;28;20353;-61
2022/02/24 13:28:06;;;;;;;;;;;;;;;;;;5002095;28;19910;-60
2022/02/24 13:30:31;;;;;;;;;;;;;;;;;;5001155;28;19921;-60
2022/02/24 13:32:56;;;;;;;;;;;;;;;;;;4998328;28;19925;-59
2022/02/24 13:35:21;;;;;;;;;;;;;;;;;;4999244;28;20225;-60
2022/02/24 13:37:46;;;;;;;;;;;;;;;;;;5000129;28;19918;-61
2022/02/24 13:40:12;;;;;;;;;;;;;;;;;;5000068;28;20295;-63
2022/02/24 13:42:37;;;;;;;;;;;;;;;;;;4998254;28;19963;-62
2022/02/24 13:45:02;;;;;;;;;;;;;;;;;;4997411;28;20255;-60
2022/02/24 13:47:27;;;;;;;;;;;;;;;;;;4998567;28;20440;-60
2022/02/24 13:49:52;;;;;;;;;;;;;;;;;;4999324;28;20436;-60
2022/02/24 13:52:18;;;;;;;;;;;;;;;;;;4997782;28;19936;-60
2022/02/24 13:54:43;;;;;;;;;;;;;;;;;;4998051;28;19924;-60
2022/02/24 13:57:08;;;;;;;;;;;;;;;;;;4996551;28;20436;-59
2022/02/24 13:59:33;;;;;;;;;;;;;;;;;;4999398;28;19914;-60
2022/02/24 14:01:58;;;;;;;;;;;;;;;;;;4998336;28;19914;-60
2022/02/24 14:04:25;;;;;;;;;;;;;;;;;;4997405;28;20209;-60
2022/02/24 14:06:50;;;;;;;;;;;;;;;;;;4997490;28;20005;-60
2022/02/24 14:09:16;;;;;;;;;;;;;;;;;;4999966;28;20385;-60
2022/02/24 14:11:41;;;;;;;;;;;;;;;;;;5001316;28;20009;-60
2022/02/24 14:14:06;;;;;;;;;;;;;;;;;;4999846;28;19910;-59
2022/02/24 14:16:31;;;;;;;;;;;;;;;;;;5000766;28;20289;-60
2022/02/24 14:18:56;;;;;;;;;;;;;;;;;;4997308;28;19997;-60
2022/02/24 14:21:22;;;;;;;;;;;;;;;;;;4996313;28;20368;-60
2022/02/24 14:23:47;;;;;;;;;;;;;;;;;;5000372;28;19989;-60
2022/02/24 14:26:12;;;;;;;;;;;;;;;;;;4995989;28;20440;-60
2022/02/24 14:28:37;;;;;;;;;;;;;;;;;;4998716;28;19964;-60
2022/02/24 14:31:02;;;;;;;;;;;;;;;;;;4997075;28;19921;-60
2022/02/24 14:33:27;;;;;;;;;;;;;;;;;;4997826;28;20345;-59
2022/02/24 14:35:53;;;;;;;;;;;;;;;;;;4998914;28;19913;-60
2022/02/24 14:38:18;;;;;;;;;;;;;;;;;;4998081;28;19997;-60
2022/02/24 14:40:46;;;;;;;;;;;;;;;;;;4996203;28;19921;-60
2022/02/24 14:43:11;;;;;;;;;;;;;;;;;;4997760;28;19940;-59
2022/02/24 14:45:36;;;;;;;;;;;;;;;;;;4997228;28;19911;-60
2022/02/24 14:48:01;;;;;;;;;;;;;;;;;;4994308;28;20377;-60
2022/02/24 14:50:27;;;;;;;;;;;;;;;;;;4992038;28;20025;-60
2022/02/24 14:52:52;;;;;;;;;;;;;;;;;;5001201;28;19940;-60
2022/02/24 14:55:17;;;;;;;;;;;;;;;;;;4996609;28;19910;-60
2022/02/24 14:57:42;;;;;;;;;;;;;;;;;;4996725;28;19917;-60
2022/02/24 15:00:07;;;;;;;;;;;;;;;;;;4996136;28;20357;-64
2022/02/24 15:02:32;;;;;;;;;;;;;;;;;;4996737;28;19952;-61
2022/02/24 15:04:57;;;;;;;;;;;;;;;;;;5013886;28;19909;-63
2022/02/24 15:07:23;;;;;;;;;;;;;;;;;;4996183;28;19920;-63
2022/02/24 15:09:48;;;;;;;;;;;;;;;;;;4997412;28;19913;-63
2022/02/24 15:12:13;;;;;;;;;;;;;;;;;;4998300;28;19961;-63
2022/02/24 15:14:38;;;;;;;;;;;;;;;;;;5001231;28;19954;-63
2022/02/24 15:17:03;;;;;;;;;;;;;;;;;;4995920;28;19956;-63
2022/02/24 15:19:29;;;;;;;;;;;;;;;;;;4998146;28;19969;-63
2022/02/24 15:21:54;;;;;;;;;;;;;;;;;;4996864;28;19910;-63
2022/02/24 15:24:19;;;;;;;;;;;;;;;;;;4999289;28;19920;-64
2022/02/24 15:26:44;;;;;;;;;;;;;;;;;;4997000;28;19914;-64
2022/02/24 15:29:09;;;;;;;;;;;;;;;;;;4998439;28;20498;-63
2022/02/24 15:31:34;;;;;;;;;;;;;;;;;;4996221;28;19917;-63
2022/02/24 15:33:59;;;;;;;;;;;;;;;;;;4998855;28;19917;-63
2022/02/24 15:36:25;;;;;;;;;;;;;;;;;;4997723;28;20276;-63
2022/02/24 15:38:50;;;;;;;;;;;;;;;;;;4996652;28;19917;-63
2022/02/24 15:41:15;;;;;;;;;;;;;;;;;;4997307;28;20413;-64
2022/02/24 15:43:40;;;;;;;;;;;;;;;;;;4996347;28;19918;-63
2022/02/24 15:46:05;;;;;;;;;;;;;;;;;;4996812;28;19919;-63
2022/02/24 15:48:30;;;;;;;;;;;;;;;;;;4997848;28;20362;-63
2022/02/24 15:50:55;;;;;;;;;;;;;;;;;;4997963;28;19979;-63
2022/02/24 15:53:21;;;;;;;;;;;;;;;;;;4995732;28;20389;-63
2022/02/24 15:55:46;;;;;;;;;;;;;;;;;;4996341;28;19954;-63
2022/02/24 15:58:11;;;;;;;;;;;;;;;;;;4996293;28;20428;-63
2022/02/24 16:00:36;;;;;;;;;;;;;;;;;;4997731;28;19971;-62
2022/02/24 16:03:02;;;;;;;;;;;;;;;;;;4994855;28;20077;-63
2022/02/24 16:05:27;;;;;;;;;;;;;;;;;;4994682;28;19917;-63
2022/02/24 16:07:52;;;;;;;;;;;;;;;;;;4996487;28;19996;-62
2022/02/24 16:10:18;;;;;;;;;;;;;;;;;;4999626;28;20308;-62
2022/02/24 16:12:43;;;;;;;;;;;;;;;;;;5000364;28;19920;-62
2022/02/24 16:15:08;;;;;;;;;;;;;;;;;;4999316;28;20297;-62
2022/02/24 16:17:34;;;;;;;;;;;;;;;;;;5004181;28;19913;-63
2022/02/24 16:19:59;;;;;;;;;;;;;;;;;;5001801;28;19909;-62
2022/02/24 16:22:26;;;;;;;;;;;;;;;;;;5001556;28;19910;-62
2022/02/24 16:24:51;;;;;;;;;;;;;;;;;;5000603;28;20283;-62
2022/02/24 16:27:19;;;;;;;;;;;;;;;;;;4999610;28;19921;-62
2022/02/24 16:29:44;;;;;;;;;;;;;;;;;;4998377;28;19968;-62
2022/02/24 16:32:09;;;;;;;;;;;;;;;;;;5001226;28;19953;-62
2022/02/24 16:34:34;;;;;;;;;;;;;;;;;;5003916;28;20538;-62